createdAt,value
2022-11-21T00:00:36.715Z,-1.36
2022-11-21T00:05:46.489Z,-1.40
2022-11-21T00:10:52.051Z,-1.41
2022-11-21T00:15:57.090Z,-1.47
2022-11-21T00:21:07.620Z,-1.45
2022-11-21T00:26:14.057Z,-1.38
2022-11-21T00:31:23.481Z,-1.44
2022-11-21T00:36:31.126Z,-1.35
2022-11-21T00:41:36.107Z,-1.33
2022-11-21T00:46:41.015Z,-1.28
2022-11-21T00:51:48.726Z,-1.27
2022-11-21T00:56:53.631Z,-1.15
2022-11-21T01:01:58.493Z,-1.05
2022-11-21T01:07:07.235Z,-1.04
2022-11-21T01:12:12.206Z,-0.97
2022-11-21T01:17:17.130Z,-0.93
2022-11-21T01:22:24.564Z,-0.84
2022-11-21T01:27:29.426Z,-0.69
2022-11-21T01:32:34.374Z,-0.57
2022-11-21T01:37:42.131Z,-0.56
2022-11-21T01:42:56.592Z,-0.44
2022-11-21T01:48:01.503Z,-0.18
2022-11-21T01:53:09.291Z,0.09
2022-11-21T01:58:15.820Z,0.23
2022-11-21T02:03:27.778Z,0.35
2022-11-21T02:08:35.657Z,0.43
2022-11-21T02:13:40.891Z,0.50
2022-11-21T02:18:45.931Z,0.55
2022-11-21T02:24:01.732Z,0.50
2022-11-21T02:29:09.242Z,0.57
2022-11-21T02:34:14.077Z,0.55
2022-11-21T02:39:24.519Z,0.64
2022-11-21T02:44:40.452Z,0.71
2022-11-21T02:49:52.268Z,0.71
2022-11-21T02:54:57.158Z,0.69
2022-11-21T03:00:04.854Z,0.72
2022-11-21T03:05:12.752Z,0.77
2022-11-21T03:10:18.527Z,0.71
2022-11-21T03:15:26.620Z,0.74
2022-11-21T03:20:31.972Z,0.85
2022-11-21T03:25:37.285Z,0.87
2022-11-21T03:30:44.947Z,0.87
2022-11-21T03:35:51.125Z,0.87
2022-11-21T03:40:56.082Z,0.95
2022-11-21T03:46:03.516Z,1.00
2022-11-21T03:51:08.644Z,1.21
2022-11-21T03:56:13.478Z,1.41
2022-11-21T04:01:21.630Z,1.29
2022-11-21T04:06:27.708Z,1.29
2022-11-21T04:11:32.663Z,1.29
2022-11-21T04:16:41.981Z,1.31
2022-11-21T04:21:46.839Z,1.32
2022-11-21T04:26:51.802Z,1.30
2022-11-21T04:31:59.653Z,1.35
2022-11-21T04:37:08.876Z,1.38
2022-11-21T04:42:16.373Z,1.27
2022-11-21T04:47:23.954Z,1.15
2022-11-21T04:52:32.931Z,1.07
2022-11-21T04:57:40.154Z,1.11
2022-11-21T05:02:49.451Z,1.13
2022-11-21T05:07:54.517Z,1.07
2022-11-21T05:13:13.279Z,1.27
2022-11-21T05:18:22.156Z,1.23
2022-11-21T05:23:28.960Z,1.32
2022-11-21T05:28:33.859Z,1.36
2022-11-21T05:33:47.321Z,1.46
2022-11-21T05:38:55.121Z,1.55
2022-11-21T05:44:01.574Z,1.55
2022-11-21T05:49:11.479Z,1.60
2022-11-21T05:54:17.504Z,1.64
2022-11-21T05:59:22.513Z,1.80
2022-11-21T06:04:32.166Z,1.85
2022-11-21T06:09:39.526Z,1.80
2022-11-21T06:14:45.760Z,1.82
2022-11-21T06:19:58.354Z,2.10
2022-11-21T06:25:04.644Z,2.33
2022-11-21T06:30:11.476Z,2.42
2022-11-21T06:35:19.706Z,2.36
2022-11-21T06:40:24.756Z,2.18
2022-11-21T06:45:31.383Z,2.25
2022-11-21T06:50:41.894Z,2.15
2022-11-21T06:55:47.522Z,2.21
2022-11-21T07:00:53.484Z,2.15
2022-11-21T07:06:04.268Z,2.13
2022-11-21T07:11:26.997Z,2.05
2022-11-21T07:16:32.642Z,2.04
2022-11-21T07:21:43.556Z,1.93
2022-11-21T07:26:48.487Z,1.89
2022-11-21T07:31:54.612Z,1.75
2022-11-21T07:37:05.403Z,1.58
2022-11-21T07:42:11.003Z,1.57
2022-11-21T07:47:18.997Z,1.34
2022-11-21T07:52:27.083Z,1.31
2022-11-21T07:57:32.675Z,1.14
2022-11-21T08:02:59.695Z,1.37
2022-11-21T08:08:13.453Z,1.17
2022-11-21T08:13:19.752Z,0.78
2022-11-21T08:18:32.691Z,0.50
2022-11-21T08:23:47.230Z,0.22
2022-11-21T08:29:04.540Z,0.29
2022-11-21T08:34:14.457Z,0.04
2022-11-21T08:39:22.574Z,0.07
2022-11-21T08:44:30.109Z,0.11
2022-11-21T08:49:36.004Z,0.24
2022-11-21T08:54:44.306Z,0.10
2022-11-21T08:59:52.468Z,-0.02
2022-11-21T09:04:59.133Z,-0.06
2022-11-21T09:10:07.824Z,0.16
2022-11-21T09:15:27.098Z,0.24
2022-11-21T09:20:42.505Z,0.07
2022-11-21T09:25:51.601Z,0.09
2022-11-21T09:30:59.367Z,0.33
2022-11-21T09:36:07.584Z,0.08
2022-11-21T09:41:42.695Z,0.04
2022-11-21T09:46:51.030Z,0.00
2022-11-21T09:52:00.850Z,0.13
2022-11-21T09:57:08.799Z,0.39
2022-11-21T10:02:18.496Z,0.46
2022-11-21T10:07:28.668Z,0.17
2022-11-21T10:12:44.745Z,0.23
2022-11-21T10:18:11.280Z,-0.06
2022-11-21T10:23:35.807Z,0.15
2022-11-21T10:28:54.312Z,0.35
2022-11-21T10:34:02.094Z,0.35
2022-11-21T10:39:15.872Z,0.46
2022-11-21T10:44:41.368Z,0.37
2022-11-21T10:49:49.381Z,0.39
2022-11-21T10:55:13.467Z,0.70
2022-11-21T11:00:27.575Z,1.51
2022-11-21T11:05:33.560Z,0.83
2022-11-21T11:10:40.697Z,0.98
2022-11-21T11:16:04.579Z,0.95
2022-11-21T11:21:18.853Z,0.45
2022-11-21T11:26:32.153Z,0.20
2022-11-21T11:31:47.937Z,0.66
2022-11-21T11:37:07.797Z,0.43
2022-11-21T11:43:00.481Z,0.55
2022-11-21T11:48:12.437Z,0.80
2022-11-21T11:53:21.753Z,1.24
2022-11-21T11:58:32.925Z,0.83
2022-11-21T12:03:47.183Z,1.12
2022-11-21T12:08:59.743Z,1.38
2022-11-21T12:14:34.546Z,1.56
2022-11-21T12:19:47.072Z,1.22
2022-11-21T12:24:53.399Z,1.38
2022-11-21T12:30:32.888Z,1.31
2022-11-21T12:36:09.226Z,1.24
2022-11-21T12:41:42.909Z,1.54
2022-11-21T12:52:49.685Z,1.53
2022-11-21T12:58:11.047Z,1.66
2022-11-21T13:03:33.571Z,1.67
2022-11-21T13:08:42.515Z,1.86
2022-11-21T13:13:51.044Z,1.67
2022-11-21T13:18:57.491Z,1.46
2022-11-21T13:24:05.304Z,1.37
2022-11-21T13:29:12.541Z,1.26
2022-11-21T13:34:37.652Z,1.65
2022-11-21T13:39:48.121Z,1.23
2022-11-21T13:44:54.821Z,1.61
2022-11-21T13:50:11.689Z,1.55
2022-11-21T13:55:45.319Z,1.48
2022-11-21T14:01:25.923Z,1.56
2022-11-21T14:06:37.930Z,1.37
2022-11-21T14:11:50.619Z,1.09
2022-11-21T14:17:15.556Z,0.95
2022-11-21T14:22:34.786Z,1.33
2022-11-21T14:27:45.627Z,0.90
2022-11-21T14:32:54.304Z,0.82
2022-11-21T14:38:08.539Z,0.79
2022-11-21T14:43:33.491Z,0.80
2022-11-21T14:48:38.669Z,0.91
2022-11-21T14:53:47.279Z,0.83
2022-11-21T14:58:59.047Z,0.81
2022-11-21T15:04:06.514Z,0.84
2022-11-21T15:10:25.294Z,0.77
2022-11-21T15:14:50.441Z,0.79
2022-11-21T15:20:21.190Z,0.70
2022-11-21T15:25:31.363Z,0.47
2022-11-21T15:30:39.969Z,0.37
2022-11-21T15:35:51.528Z,0.38
2022-11-21T15:52:21.618Z,0.18
2022-11-21T16:03:24.630Z,0.26
2022-11-21T16:08:51.453Z,0.27
2022-11-21T16:14:44.984Z,0.19
2022-11-21T16:20:12.504Z,0.16
2022-11-21T16:25:37.312Z,0.15
2022-11-21T16:30:47.137Z,0.10
2022-11-21T16:35:58.074Z,0.16
2022-11-21T16:41:05.771Z,0.21
2022-11-21T16:46:13.651Z,0.13
2022-11-21T16:51:22.762Z,0.15
2022-11-21T16:56:31.045Z,0.22
2022-11-21T17:01:37.460Z,0.16
2022-11-21T17:06:45.505Z,0.19
2022-11-21T17:11:53.469Z,0.12
2022-11-21T17:17:01.290Z,0.18
2022-11-21T17:22:09.212Z,0.18
2022-11-21T17:27:16.548Z,0.19
2022-11-21T17:32:24.939Z,0.14
2022-11-21T17:37:32.807Z,0.22
2022-11-21T17:42:38.064Z,0.37
2022-11-21T17:47:44.151Z,0.39
2022-11-21T17:52:52.707Z,0.47
2022-11-21T17:57:57.679Z,0.34
2022-11-21T18:03:02.606Z,0.50
2022-11-21T18:08:10.481Z,0.42
2022-11-21T18:13:15.507Z,0.36
2022-11-21T18:18:21.317Z,0.30
2022-11-21T18:23:30.788Z,0.20
2022-11-21T18:28:36.483Z,0.20
2022-11-21T18:33:42.197Z,0.17
2022-11-21T18:38:58.319Z,0.17
2022-11-21T18:44:09.419Z,0.05
2022-11-21T18:49:18.023Z,0.18
2022-11-21T18:54:27.134Z,0.03
2022-11-21T18:59:32.228Z,-0.05
2022-11-21T19:04:40.218Z,-0.09
2022-11-21T19:09:48.223Z,-0.12
2022-11-21T19:14:55.683Z,-0.18
2022-11-21T19:20:00.812Z,-0.18
2022-11-21T19:25:11.224Z,-0.19
2022-11-21T19:30:17.220Z,-0.21
2022-11-21T19:35:23.820Z,-0.21
2022-11-21T19:40:51.655Z,-0.17
2022-11-21T19:45:58.343Z,-0.23
2022-11-21T19:51:05.391Z,-0.11
2022-11-21T19:56:16.171Z,-0.12
2022-11-21T20:01:24.075Z,-0.11
2022-11-21T20:06:31.349Z,-0.17
2022-11-21T20:11:41.544Z,-0.17
2022-11-21T20:16:49.258Z,-0.22
2022-11-21T20:21:55.678Z,-0.25
2022-11-21T20:27:03.965Z,-0.30
2022-11-21T20:32:09.158Z,-0.31
2022-11-21T20:37:14.725Z,-0.10
2022-11-21T20:42:22.433Z,-0.04
2022-11-21T20:47:27.446Z,-0.03
2022-11-21T20:58:01.887Z,0.01
2022-11-21T21:03:08.329Z,-0.12
2022-11-21T21:08:13.481Z,-0.18
2022-11-21T21:13:21.115Z,-0.24
2022-11-21T21:18:26.067Z,-0.21
2022-11-21T21:23:31.041Z,-0.07
2022-11-21T21:28:38.676Z,-0.11
2022-11-21T21:33:44.375Z,-0.25
2022-11-21T21:38:53.966Z,-0.17
2022-11-21T21:44:01.853Z,-0.23
2022-11-21T21:49:06.996Z,-0.08
2022-11-21T21:54:18.789Z,-0.04
2022-11-21T21:59:26.356Z,0.20
2022-11-21T22:04:32.229Z,0.36
2022-11-21T22:09:38.087Z,0.23
2022-11-21T22:14:45.602Z,0.17
2022-11-21T22:19:50.501Z,0.21
2022-11-21T22:24:55.585Z,0.22
2022-11-21T22:30:03.175Z,0.08
2022-11-21T22:35:09.174Z,0.03
2022-11-21T22:40:15.839Z,0.07
2022-11-21T22:45:23.469Z,0.14
2022-11-21T22:50:28.597Z,0.17
2022-11-21T22:55:33.553Z,0.14
2022-11-21T23:00:41.145Z,0.45
2022-11-21T23:05:46.114Z,0.61
2022-11-21T23:10:51.029Z,0.78
2022-11-21T23:16:01.568Z,0.83
2022-11-21T23:21:07.542Z,0.88
2022-11-21T23:26:13.384Z,0.95
2022-11-21T23:31:20.882Z,0.96
2022-11-21T23:36:25.872Z,1.03
2022-11-21T23:41:31.030Z,1.13
2022-11-21T23:46:38.696Z,1.15
2022-11-21T23:51:43.596Z,1.06
2022-11-21T23:56:48.652Z,0.99
